Time;durP1;ratioP1;P1;durP2;ratioP2;P2;SDS_P1;SDS_P2;PMS_P1;PMS_P2;Temp;Humidity;BMP_temperature;BMP_pressure;BME280_temperature;BME280_humidity;BME280_pressure;Samples;Min_cycle;Max_cycle;Signal;HPM_P1;HPM_P2
2023/04/04 00:00:41;;;;;;;4.10;3.07;;;5.60;74.00;;;;;;10434019;28;20253;-79
2023/04/04 00:05:45;;;;;;;3.30;3.00;;;5.30;75.40;;;;;;10425896;28;20203;-79
2023/04/04 00:10:47;;;;;;;3.50;3.10;;;5.10;75.40;;;;;;10425181;28;20220;-78
2023/04/04 00:15:49;;;;;;;3.13;2.90;;;4.90;76.30;;;;;;10432997;28;20673;-79
2023/04/04 00:20:53;;;;;;;3.50;3.20;;;4.80;76.40;;;;;;10459604;28;20230;-79
2023/04/04 00:25:55;;;;;;;3.60;3.20;;;4.70;77.20;;;;;;10452862;28;20201;-79
2023/04/04 00:30:57;;;;;;;3.77;3.37;;;4.50;76.20;;;;;;10437648;28;20251;-80
2023/04/04 00:36:00;;;;;;;4.00;3.63;;;4.40;79.70;;;;;;10435224;28;20223;-78
2023/04/04 00:41:02;;;;;;;3.37;3.07;;;4.30;77.20;;;;;;10445111;28;20247;-78
2023/04/04 00:46:05;;;;;;;3.27;2.97;;;4.20;79.00;;;;;;10435534;28;20208;-79
2023/04/04 00:51:08;;;;;;;4.97;2.83;;;4.20;79.70;;;;;;10434827;28;20276;-78
2023/04/04 00:56:11;;;;;;;3.07;2.77;;;4.10;77.10;;;;;;10450324;28;20211;-79
2023/04/04 01:01:13;;;;;;;3.33;3.03;;;4.10;77.90;;;;;;10436060;28;20677;-79
2023/04/04 01:06:16;;;;;;;5.20;3.20;;;4.00;78.10;;;;;;10450449;28;20206;-79
2023/04/04 01:11:18;;;;;;;3.67;3.37;;;3.90;80.30;;;;;;10412173;28;20220;-79
2023/04/04 01:16:22;;;;;;;3.60;3.30;;;3.90;78.10;;;;;;10442003;28;20242;-78
2023/04/04 01:21:29;;;;;;;3.57;3.37;;;3.80;80.90;;;;;;10442749;28;20234;-79
2023/04/04 01:26:32;;;;;;;3.60;3.33;;;3.80;78.50;;;;;;10446285;28;20187;-78
2023/04/04 01:31:41;;;;;;;4.67;3.53;;;3.80;79.30;;;;;;10426483;28;20298;-79
2023/04/04 01:36:48;;;;;;;3.90;3.60;;;3.70;79.50;;;;;;10441021;28;20608;-79
2023/04/04 01:41:52;;;;;;;3.50;3.20;;;3.70;80.20;;;;;;10452798;28;20566;-80
2023/04/04 01:46:55;;;;;;;3.67;3.37;;;3.70;80.50;;;;;;10427964;28;20210;-79
2023/04/04 01:51:58;;;;;;;4.73;3.40;;;3.70;80.70;;;;;;10441949;28;20210;-79
2023/04/04 01:57:03;;;;;;;3.43;3.23;;;3.70;79.20;;;;;;10440595;28;20207;-78
2023/04/04 02:02:05;;;;;;;4.23;3.83;;;3.70;79.60;;;;;;10428288;28;20760;-77
2023/04/04 02:07:08;;;;;;;4.53;4.13;;;3.60;78.30;;;;;;10401474;28;20655;-77
2023/04/04 02:12:12;;;;;;;6.30;4.73;;;3.60;78.80;;;;;;10417533;28;20280;-77
2023/04/04 02:17:14;;;;;;;36.43;20.97;;;3.50;79.20;;;;;;10426514;28;20202;-77
2023/04/04 02:22:16;;;;;;;10.43;7.33;;;3.50;82.60;;;;;;10430765;28;20225;-77
2023/04/04 02:27:20;;;;;;;5.60;5.07;;;3.50;81.50;;;;;;10445574;28;20658;-77
2023/04/04 02:32:23;;;;;;;11.30;6.77;;;3.50;81.00;;;;;;10474986;28;20214;-78
2023/04/04 02:37:25;;;;;;;5.07;4.60;;;3.50;82.00;;;;;;10457991;28;20197;-77
2023/04/04 02:42:31;;;;;;;4.90;4.50;;;3.50;81.80;;;;;;10445386;28;20291;-78
2023/04/04 02:47:34;;;;;;;6.20;5.47;;;3.50;81.40;;;;;;10418023;28;20207;-78
2023/04/04 02:52:37;;;;;;;3.77;3.57;;;3.50;82.60;;;;;;10417474;28;20222;-77
2023/04/04 02:57:50;;;;;;;5.33;4.83;;;3.50;81.30;;;;;;10400083;28;20744;-78
2023/04/04 03:02:57;;;;;;;4.57;4.27;;;3.40;82.00;;;;;;10429973;28;20217;-79
2023/04/04 03:08:06;;;;;;;5.20;4.70;;;3.40;79.90;;;;;;10440739;28;20251;-79
2023/04/04 03:13:09;;;;;;;7.93;4.73;;;3.30;80.90;;;;;;10461161;28;20217;-78
2023/04/04 03:18:12;;;;;;;6.40;4.67;;;3.30;80.70;;;;;;10401593;28;20198;-78
2023/04/04 03:23:15;;;;;;;4.97;4.57;;;3.20;82.00;;;;;;10413318;28;20313;-81
2023/04/04 03:28:18;;;;;;;4.83;4.00;;;3.20;81.20;;;;;;10440015;28;20201;-80
2023/04/04 03:33:21;;;;;;;4.50;4.10;;;3.20;80.70;;;;;;10445476;28;20211;-80
2023/04/04 03:38:23;;;;;;;5.20;4.67;;;3.10;81.20;;;;;;10411410;28;20670;-79
2023/04/04 03:43:31;;;;;;;4.67;4.30;;;3.00;81.60;;;;;;10462230;28;20218;-81
2023/04/04 03:48:34;;;;;;;5.00;4.50;;;3.00;79.80;;;;;;10429840;28;20216;-80
2023/04/04 03:53:39;;;;;;;4.97;4.67;;;3.00;82.30;;;;;;10442809;28;20252;-80
2023/04/04 03:58:42;;;;;;;7.20;5.10;;;2.90;82.20;;;;;;10427652;28;20617;-79
2023/04/04 04:03:48;;;;;;;4.83;4.33;;;2.90;83.60;;;;;;10443590;28;20646;-81
2023/04/04 04:08:50;;;;;;;5.10;4.43;;;2.90;82.20;;;;;;10428906;28;20285;-81
2023/04/04 04:13:54;;;;;;;5.00;4.70;;;2.90;83.00;;;;;;10412879;28;20286;-80
2023/04/04 04:18:57;;;;;;;5.30;4.80;;;2.90;82.80;;;;;;10420985;28;20213;-81
2023/04/04 04:24:09;;;;;;;4.07;3.77;;;2.90;81.60;;;;;;10444104;28;20224;-81
2023/04/04 04:29:13;;;;;;;4.80;4.40;;;2.90;80.90;;;;;;10447218;28;20209;-80
2023/04/04 04:34:15;;;;;;;5.07;4.77;;;2.80;81.40;;;;;;10435505;28;20217;-80
2023/04/04 04:39:21;;;;;;;4.47;4.13;;;2.80;84.10;;;;;;10455174;28;20215;-80
2023/04/04 04:44:38;;;;;;;4.80;4.47;;;2.70;83.20;;;;;;10430329;28;20225;-81
2023/04/04 04:49:41;;;;;;;4.57;3.87;;;2.80;82.40;;;;;;10442818;28;20593;-81
2023/04/04 04:54:45;;;;;;;4.50;4.10;;;2.80;81.30;;;;;;10438899;28;20226;-80
2023/04/04 04:59:50;;;;;;;4.30;4.00;;;2.70;81.20;;;;;;10428828;28;20576;-80
2023/04/04 05:04:53;;;;;;;6.83;4.00;;;2.70;82.70;;;;;;10419092;28;20283;-80
2023/04/04 05:09:55;;;;;;;5.50;4.43;;;2.70;83.30;;;;;;10440159;28;20234;-80
2023/04/04 05:14:59;;;;;;;4.57;4.17;;;2.70;80.70;;;;;;10421227;28;20218;-80
2023/04/04 05:20:02;;;;;;;4.23;3.83;;;2.60;81.40;;;;;;10419742;28;20301;-81
2023/04/04 05:25:05;;;;;;;5.27;4.77;;;2.60;82.30;;;;;;10447302;28;20317;-79
2023/04/04 05:30:10;;;;;;;9.10;6.50;;;2.60;81.50;;;;;;10439243;28;20210;-78
2023/04/04 05:35:24;;;;;;;6.20;5.60;;;2.50;82.90;;;;;;10456856;28;20232;-78
2023/04/04 05:40:28;;;;;;;7.50;5.93;;;2.60;83.00;;;;;;10443649;28;20618;-78
2023/04/04 05:45:42;;;;;;;8.50;7.60;;;2.60;83.90;;;;;;10422688;28;20584;-78
2023/04/04 05:50:46;;;;;;;28.93;18.30;;;2.70;83.20;;;;;;10430881;28;20584;-79
2023/04/04 05:55:52;;;;;;;18.73;16.87;;;2.80;83.40;;;;;;10428544;28;20216;-78
2023/04/04 06:00:57;;;;;;;8.23;6.50;;;2.90;84.50;;;;;;10420630;28;20667;-78
2023/04/04 06:05:59;;;;;;;10.27;7.30;;;3.00;84.80;;;;;;10434609;28;20233;-78
2023/04/04 06:11:01;;;;;;;6.50;5.87;;;3.10;83.50;;;;;;10449646;28;20237;-78
2023/04/04 06:16:06;;;;;;;6.30;5.37;;;3.20;84.10;;;;;;10458712;28;20183;-78
2023/04/04 06:21:08;;;;;;;5.77;5.20;;;3.40;82.70;;;;;;10453369;28;20214;-80
2023/04/04 06:26:13;;;;;;;6.77;5.40;;;3.50;80.60;;;;;;10461862;28;20208;-80
2023/04/04 06:31:19;;;;;;;8.03;7.23;;;3.60;80.40;;;;;;10399415;28;20222;-80
2023/04/04 06:36:23;;;;;;;9.73;5.83;;;3.70;80.40;;;;;;10428550;28;20201;-80
2023/04/04 06:41:27;;;;;;;5.87;5.27;;;3.70;81.30;;;;;;10457115;28;20215;-80
2023/04/04 06:46:32;;;;;;;5.47;5.07;;;3.80;82.20;;;;;;10460323;28;20206;-80
2023/04/04 06:51:34;;;;;;;6.97;4.10;;;3.90;81.70;;;;;;10427702;28;20727;-80
2023/04/04 06:56:36;;;;;;;6.57;4.63;;;4.00;78.80;;;;;;10432201;28;20278;-80
2023/04/04 07:01:40;;;;;;;5.20;4.70;;;4.10;80.90;;;;;;10448072;28;20684;-80
2023/04/04 07:06:42;;;;;;;4.70;4.30;;;4.20;77.70;;;;;;10397759;28;20192;-80
2023/04/04 07:11:44;;;;;;;5.03;4.20;;;4.30;77.70;;;;;;10415430;28;20278;-80
2023/04/04 07:16:48;;;;;;;4.97;4.57;;;4.40;77.30;;;;;;10417082;28;20188;-80
2023/04/04 07:21:50;;;;;;;4.47;4.10;;;4.50;76.10;;;;;;10426068;28;20216;-80
2023/04/04 07:26:52;;;;;;;5.17;4.30;;;4.60;76.10;;;;;;10414680;28;20199;-80
2023/04/04 07:31:55;;;;;;;4.47;4.17;;;4.80;76.10;;;;;;10423056;28;20584;-80
2023/04/04 07:36:58;;;;;;;5.60;4.40;;;4.90;72.80;;;;;;10450153;28;20198;-80
2023/04/04 07:42:00;;;;;;;6.73;3.70;;;4.90;74.60;;;;;;10418388;28;20218;-80
2023/04/04 07:47:03;;;;;;;5.13;4.73;;;5.00;71.70;;;;;;10425680;28;20197;-79
2023/04/04 07:52:06;;;;;;;4.67;4.17;;;5.10;74.80;;;;;;10449366;28;20604;-79
2023/04/04 07:57:08;;;;;;;5.13;4.40;;;5.20;70.10;;;;;;10423066;28;20286;-79
2023/04/04 08:02:12;;;;;;;3.60;3.30;;;5.50;71.00;;;;;;10453944;28;20231;-80
2023/04/04 08:07:14;;;;;;;2.97;2.77;;;5.80;70.60;;;;;;10451410;28;20193;-79
2023/04/04 08:12:16;;;;;;;4.17;3.50;;;6.10;69.30;;;;;;10424439;28;20251;-80
2023/04/04 08:17:19;;;;;;;3.70;3.40;;;6.40;71.10;;;;;;10455442;28;20223;-80
2023/04/04 08:22:21;;;;;;;3.77;3.40;;;6.80;68.30;;;;;;10453133;28;20304;-80
2023/04/04 08:27:24;;;;;;;4.23;3.77;;;7.00;65.40;;;;;;10457572;28;20654;-80
2023/04/04 08:32:27;;;;;;;6.83;4.30;;;7.10;65.20;;;;;;10445285;28;20246;-80
2023/04/04 08:37:29;;;;;;;5.13;4.30;;;7.20;66.70;;;;;;10462536;28;20194;-80
2023/04/04 08:42:34;;;;;;;3.90;3.57;;;7.30;63.70;;;;;;10458384;28;20619;-80
2023/04/04 08:47:38;;;;;;;4.73;3.53;;;7.40;64.20;;;;;;10456432;28;20506;-80
2023/04/04 08:52:42;;;;;;;4.10;3.70;;;7.40;65.60;;;;;;10428992;28;20211;-79
2023/04/04 08:57:44;;;;;;;4.73;4.23;;;7.60;66.70;;;;;;10447927;28;20329;-79
2023/04/04 09:02:56;;;;;;;6.07;3.77;;;7.80;61.90;;;;;;10439180;22;20224;-81
2023/04/04 09:07:59;;;;;;;5.93;3.97;;;7.90;61.70;;;;;;10360747;28;20695;-82
2023/04/04 09:13:02;;;;;;;3.50;3.17;;;8.00;63.50;;;;;;10374101;28;20207;-82
2023/04/04 09:18:06;;;;;;;4.17;3.73;;;8.10;58.90;;;;;;10367545;28;20197;-82
2023/04/04 09:23:10;;;;;;;4.27;3.90;;;8.20;62.60;;;;;;10396308;28;20219;-80
2023/04/04 09:28:14;;;;;;;5.13;3.40;;;8.50;59.30;;;;;;10347077;28;20195;-82
2023/04/04 09:33:20;;;;;;;5.57;3.47;;;8.50;59.10;;;;;;10373326;28;20569;-82
2023/04/04 09:38:24;;;;;;;5.30;3.97;;;8.50;61.10;;;;;;10379921;28;20195;-82
2023/04/04 09:43:29;;;;;;;4.80;3.93;;;8.60;61.40;;;;;;10342356;28;20212;-81
2023/04/04 09:48:35;;;;;;;3.57;3.27;;;8.70;60.00;;;;;;10378417;28;20205;-82
2023/04/04 09:53:40;;;;;;;3.80;3.50;;;9.00;57.80;;;;;;10354681;28;20221;-81
2023/04/04 09:58:47;;;;;;;4.27;3.70;;;9.20;57.60;;;;;;10341793;28;20664;-82
2023/04/04 10:03:53;;;;;;;3.83;3.53;;;9.30;59.10;;;;;;10375740;28;20329;-82
2023/04/04 10:08:57;;;;;;;4.97;4.30;;;9.70;58.30;;;;;;10345250;28;20227;-81
2023/04/04 10:14:01;;;;;;;6.70;4.23;;;9.80;58.10;;;;;;10364249;28;20214;-82
2023/04/04 10:19:07;;;;;;;4.60;4.20;;;9.70;57.60;;;;;;10367517;28;20219;-82
2023/04/04 10:24:16;;;;;;;4.20;3.90;;;9.50;56.00;;;;;;10375278;28;20216;-82
2023/04/04 10:29:20;;;;;;;4.20;3.90;;;9.10;58.10;;;;;;10345127;28;20192;-81
2023/04/04 10:34:31;;;;;;;8.97;4.93;;;8.90;57.80;;;;;;10348513;28;20242;-82
2023/04/04 10:39:38;;;;;;;4.63;4.27;;;8.80;58.20;;;;;;10377009;28;20594;-82
2023/04/04 10:44:41;;;;;;;7.97;4.20;;;8.70;56.70;;;;;;10349431;28;20268;-82
2023/04/04 10:49:49;;;;;;;7.20;4.33;;;8.50;56.40;;;;;;10370000;28;20199;-81
2023/04/04 10:54:56;;;;;;;5.57;4.57;;;8.30;56.40;;;;;;10386358;28;20217;-82
2023/04/04 11:00:03;;;;;;;4.07;3.77;;;8.10;58.40;;;;;;10329221;28;20249;-82
2023/04/04 11:05:12;;;;;;;6.53;5.47;;;8.10;58.60;;;;;;10378552;28;20276;-82
2023/04/04 11:10:17;;;;;;;4.83;4.43;;;8.10;59.50;;;;;;10356805;28;20202;-82
2023/04/04 11:15:21;;;;;;;4.40;4.10;;;8.10;58.50;;;;;;10348353;28;20207;-79
2023/04/04 11:20:32;;;;;;;4.50;4.20;;;8.10;59.00;;;;;;10359405;28;20704;-80
2023/04/04 11:25:36;;;;;;;4.97;4.53;;;8.10;57.10;;;;;;10379666;28;20294;-82
2023/04/04 11:30:43;;;;;;;5.13;4.63;;;8.10;58.60;;;;;;10396296;28;20200;-82
2023/04/04 11:35:50;;;;;;;4.03;3.70;;;8.10;62.20;;;;;;10347193;28;20682;-82
2023/04/04 11:40:55;;;;;;;5.00;4.50;;;8.20;58.80;;;;;;10372897;28;20202;-82
2023/04/04 11:46:09;;;;;;;4.90;4.57;;;8.20;57.40;;;;;;10349202;28;20212;-82
2023/04/04 11:51:14;;;;;;;4.83;4.10;;;8.20;57.40;;;;;;10366213;28;20226;-80
2023/04/04 11:56:16;;;;;;;4.30;3.90;;;8.10;57.60;;;;;;10370317;28;20251;-81
2023/04/04 12:01:21;;;;;;;4.50;4.10;;;8.10;59.00;;;;;;10351103;28;20240;-82
2023/04/04 12:06:28;;;;;;;4.90;4.60;;;8.10;58.80;;;;;;10344944;28;20211;-82
2023/04/04 12:11:32;;;;;;;8.20;4.67;;;8.20;59.00;;;;;;10366990;28;20220;-81
2023/04/04 12:16:35;;;;;;;3.90;3.60;;;8.30;58.30;;;;;;10341422;28;20228;-82
2023/04/04 12:21:40;;;;;;;4.97;4.57;;;8.40;57.30;;;;;;10368315;28;20219;-82
2023/04/04 12:26:46;;;;;;;4.63;4.23;;;8.40;57.90;;;;;;10363138;28;20217;-82
2023/04/04 12:31:55;;;;;;;4.43;4.13;;;8.40;57.80;;;;;;10341831;28;20285;-82
2023/04/04 12:37:04;;;;;;;4.57;4.17;;;8.50;57.40;;;;;;10365923;28;20293;-81
2023/04/04 12:42:11;;;;;;;4.73;4.33;;;8.50;58.10;;;;;;10354987;28;20700;-81
2023/04/04 12:47:19;;;;;;;4.73;4.33;;;8.50;56.80;;;;;;10343280;28;20212;-81
2023/04/04 12:52:30;;;;;;;5.43;4.53;;;8.50;57.50;;;;;;10383341;28;20222;-82
2023/04/04 12:57:38;;;;;;;4.03;3.73;;;8.60;57.70;;;;;;10381923;28;20290;-81
2023/04/04 13:02:49;;;;;;;4.50;4.10;;;8.60;58.20;;;;;;10382343;28;20229;-82
2023/04/04 13:08:09;;;;;;;4.63;4.23;;;8.70;57.20;;;;;;10348656;28;20201;-81
2023/04/04 13:13:42;;;;;;;4.40;4.03;;;8.80;58.90;;;;;;10383261;28;20680;-82
2023/04/04 13:18:47;;;;;;;4.87;4.47;;;8.90;57.80;;;;;;10367444;28;20204;-82
2023/04/04 13:23:50;;;;;;;5.30;4.70;;;8.90;58.40;;;;;;10388145;28;20221;-81
2023/04/04 13:28:52;;;;;;;4.63;4.23;;;9.00;56.20;;;;;;10387375;28;20195;-81
2023/04/04 13:33:55;;;;;;;4.90;4.60;;;8.90;59.40;;;;;;10385041;28;20237;-81
2023/04/04 13:38:59;;;;;;;4.53;4.23;;;8.90;58.00;;;;;;10394517;28;20229;-82
2023/04/04 13:44:05;;;;;;;4.80;4.40;;;8.90;58.50;;;;;;10368555;28;20219;-82
2023/04/04 13:49:12;;;;;;;4.43;4.03;;;9.00;58.10;;;;;;10366897;28;20622;-82
2023/04/04 13:54:30;;;;;;;4.30;4.00;;;8.90;58.50;;;;;;10384242;28;20225;-82
2023/04/04 13:59:35;;;;;;;4.27;3.87;;;9.00;58.00;;;;;;10391950;28;20740;-82
2023/04/04 14:04:40;;;;;;;4.43;4.03;;;9.10;58.30;;;;;;10386034;28;20223;-81
2023/04/04 14:09:47;;;;;;;6.43;5.87;;;9.10;57.70;;;;;;10390549;28;20269;-82
2023/04/04 14:14:50;;;;;;;5.03;4.53;;;9.20;59.10;;;;;;10366342;28;20580;-82
2023/04/04 14:20:01;;;;;;;4.50;4.10;;;9.20;59.70;;;;;;10381502;28;20675;-82
2023/04/04 14:25:06;;;;;;;4.13;3.83;;;9.30;58.60;;;;;;10381221;28;20237;-83
2023/04/04 14:30:16;;;;;;;7.30;4.70;;;9.40;58.70;;;;;;10386376;28;20203;-82
2023/04/04 14:35:20;;;;;;;4.40;4.03;;;9.40;57.50;;;;;;10382512;28;20258;-82
2023/04/04 14:40:31;;;;;;;4.57;4.27;;;9.50;58.20;;;;;;10361609;28;20651;-82
2023/04/04 14:45:40;;;;;;;4.80;4.23;;;9.50;57.80;;;;;;10361883;28;20222;-82
2023/04/04 14:50:42;;;;;;;5.00;4.47;;;9.60;57.30;;;;;;10373103;28;20199;-82
2023/04/04 14:55:45;;;;;;;4.67;4.27;;;9.60;57.10;;;;;;10361300;28;20246;-81
2023/04/04 15:00:48;;;;;;;4.97;4.47;;;9.80;58.30;;;;;;10378909;28;20206;-78
2023/04/04 15:05:50;;;;;;;4.27;3.97;;;10.00;55.90;;;;;;10445564;22;20222;-81
2023/04/04 15:10:55;;;;;;;4.53;4.13;;;10.00;56.20;;;;;;10424769;28;20543;-81
2023/04/04 15:15:58;;;;;;;4.60;4.07;;;10.00;58.50;;;;;;10427530;28;20295;-81
2023/04/04 15:21:01;;;;;;;4.47;4.00;;;9.90;57.30;;;;;;10407699;28;20193;-81
2023/04/04 15:26:05;;;;;;;5.07;4.03;;;10.00;57.60;;;;;;10424605;28;20214;-81
2023/04/04 15:31:07;;;;;;;4.90;4.20;;;10.00;57.40;;;;;;10423079;28;20201;-81
2023/04/04 15:36:09;;;;;;;4.77;4.40;;;10.00;56.50;;;;;;10420573;28;20230;-81
2023/04/04 15:41:12;;;;;;;5.87;4.93;;;10.00;55.90;;;;;;10418541;28;20202;-79
2023/04/04 15:46:15;;;;;;;5.07;4.63;;;9.90;55.70;;;;;;10402461;28;20226;-80
2023/04/04 15:51:17;;;;;;;4.27;3.97;;;9.90;56.80;;;;;;10402180;28;20295;-79
2023/04/04 15:56:22;;;;;;;5.07;4.50;;;9.80;58.60;;;;;;10402082;28;20225;-80
2023/04/04 16:01:24;;;;;;;4.63;4.13;;;9.90;57.90;;;;;;10423763;28;20201;-81
2023/04/04 16:06:28;;;;;;;4.47;4.17;;;9.90;59.10;;;;;;10420475;28;20221;-80
2023/04/04 16:11:33;;;;;;;4.80;4.40;;;9.90;60.20;;;;;;10418335;28;20702;-79
2023/04/04 16:16:35;;;;;;;4.73;4.33;;;9.90;57.00;;;;;;10419169;28;20807;-81
2023/04/04 16:21:37;;;;;;;6.40;4.27;;;9.90;57.00;;;;;;10418258;28;20222;-80
2023/04/04 16:26:45;;;;;;;4.73;4.17;;;9.90;58.70;;;;;;10417664;28;20275;-80
2023/04/04 16:31:48;;;;;;;4.83;4.07;;;9.80;58.20;;;;;;10420288;28;20245;-80
2023/04/04 16:36:50;;;;;;;4.70;4.30;;;9.70;60.10;;;;;;10420645;28;20293;-81
2023/04/04 16:41:56;;;;;;;5.73;5.13;;;9.70;58.40;;;;;;10420788;28;20243;-80
2023/04/04 16:46:58;;;;;;;5.20;4.80;;;9.60;58.90;;;;;;10403044;28;20312;-80
2023/04/04 16:52:00;;;;;;;5.57;4.97;;;9.60;58.30;;;;;;10404715;28;20259;-80
2023/04/04 16:57:04;;;;;;;4.83;4.37;;;9.50;58.60;;;;;;10422112;28;20254;-80
2023/04/04 17:02:07;;;;;;;4.30;4.00;;;9.50;59.20;;;;;;10419832;28;20233;-81
2023/04/04 17:07:09;;;;;;;4.60;4.30;;;9.40;62.00;;;;;;10420033;28;20238;-80
2023/04/04 17:12:13;;;;;;;4.37;4.03;;;9.30;60.60;;;;;;10420729;28;20230;-79
2023/04/04 17:17:16;;;;;;;4.67;4.27;;;9.30;59.50;;;;;;10413912;28;20187;-80
2023/04/04 17:22:18;;;;;;;4.70;4.10;;;9.20;56.90;;;;;;10398481;28;20686;-80
2023/04/04 17:27:21;;;;;;;5.20;4.47;;;9.20;58.70;;;;;;10399898;28;20307;-79
2023/04/04 17:32:23;;;;;;;4.40;4.00;;;9.00;59.40;;;;;;10417439;28;20247;-81
2023/04/04 17:37:27;;;;;;;5.07;4.67;;;9.00;60.10;;;;;;10423818;28;20199;-80
2023/04/04 17:42:31;;;;;;;5.00;4.40;;;8.90;58.20;;;;;;10409135;28;20233;-81
2023/04/04 17:47:33;;;;;;;5.33;4.83;;;8.80;61.80;;;;;;10429015;28;20223;-82
2023/04/04 17:52:35;;;;;;;4.67;4.33;;;8.80;61.00;;;;;;10414684;28;20282;-81
2023/04/04 17:57:39;;;;;;;5.13;4.63;;;8.70;59.70;;;;;;10414595;28;20657;-82
2023/04/04 18:02:41;;;;;;;4.97;4.47;;;8.70;62.60;;;;;;10413861;28;20257;-82
2023/04/04 18:07:44;;;;;;;5.43;5.03;;;8.60;62.40;;;;;;10417689;28;20229;-81
2023/04/04 18:12:47;;;;;;;5.67;5.17;;;8.50;65.00;;;;;;10415892;28;20219;-81
2023/04/04 18:17:50;;;;;;;6.80;5.50;;;8.50;63.10;;;;;;10468957;28;20205;-81
2023/04/04 18:22:52;;;;;;;6.40;5.80;;;8.40;65.30;;;;;;10483071;28;20215;-82
2023/04/04 18:27:56;;;;;;;5.70;5.00;;;8.40;65.60;;;;;;10416976;28;20709;-79
2023/04/04 18:32:58;;;;;;;6.30;5.70;;;8.30;62.80;;;;;;10397654;28;20314;-81
2023/04/04 18:38:00;;;;;;;6.53;5.90;;;8.20;65.90;;;;;;10419966;28;20204;-81
2023/04/04 18:43:04;;;;;;;7.93;7.07;;;8.20;66.00;;;;;;10401352;28;20725;-81
2023/04/04 18:48:06;;;;;;;5.87;5.43;;;8.20;65.00;;;;;;10423926;28;20222;-81
2023/04/04 18:53:09;;;;;;;8.70;7.93;;;8.10;66.40;;;;;;10425279;28;20292;-81
2023/04/04 18:58:12;;;;;;;6.10;5.50;;;8.00;64.50;;;;;;10427348;28;20186;-81
2023/04/04 19:03:14;;;;;;;5.80;5.30;;;8.00;63.60;;;;;;10385994;28;1096253;-82
2023/04/04 19:08:18;;;;;;;6.63;6.00;;;7.90;67.10;;;;;;10422985;28;20476;-81
2023/04/04 19:13:21;;;;;;;9.00;6.00;;;7.90;68.70;;;;;;10421303;28;20228;-80
2023/04/04 19:18:24;;;;;;;8.43;6.90;;;7.80;67.80;;;;;;10421024;28;20254;-81
2023/04/04 19:23:27;;;;;;;5.93;5.43;;;7.80;66.60;;;;;;10419129;28;20587;-82
2023/04/04 19:28:30;;;;;;;6.90;5.73;;;7.70;67.40;;;;;;10423752;28;20220;-82
2023/04/04 19:33:33;;;;;;;7.00;6.30;;;7.70;68.10;;;;;;10409595;28;20581;-81
2023/04/04 19:38:36;;;;;;;8.80;6.67;;;7.70;68.50;;;;;;10423712;28;20564;-80
2023/04/04 19:43:43;;;;;;;6.97;6.30;;;7.70;66.90;;;;;;10407251;28;20230;-81
2023/04/04 19:48:48;;;;;;;9.50;8.43;;;7.60;69.10;;;;;;10420210;28;20227;-81
2023/04/04 19:53:52;;;;;;;16.40;11.80;;;7.50;68.20;;;;;;10416444;28;20250;-81
2023/04/04 19:58:58;;;;;;;12.57;10.37;;;7.40;69.50;;;;;;10418682;28;20191;-80
2023/04/04 20:04:06;;;;;;;11.80;10.60;;;7.30;69.80;;;;;;10401364;28;20586;-80
2023/04/04 20:09:31;;;;;;;13.67;10.80;;;7.20;70.10;;;;;;10400836;28;20191;-81
2023/04/04 20:14:35;;;;;;;12.43;10.33;;;7.00;69.90;;;;;;10399683;28;20667;-81
2023/04/04 20:19:39;;;;;;;13.70;12.23;;;6.90;70.20;;;;;;10414230;28;20197;-80
2023/04/04 20:24:45;;;;;;;16.27;12.40;;;6.80;70.80;;;;;;10397405;28;20686;-81
2023/04/04 20:29:53;;;;;;;11.63;9.80;;;6.70;70.00;;;;;;10411261;28;20221;-81
2023/04/04 20:34:55;;;;;;;12.03;10.80;;;6.50;71.70;;;;;;10395438;28;20312;-82
2023/04/04 20:39:58;;;;;;;9.77;8.77;;;6.40;72.80;;;;;;10394877;28;20207;-82
2023/04/04 20:45:40;;;;;;;8.60;7.80;;;6.40;72.50;;;;;;10412321;28;20235;-81
2023/04/04 20:50:45;;;;;;;9.57;8.77;;;6.40;72.80;;;;;;10386379;28;20207;-82
2023/04/04 20:55:49;;;;;;;9.13;8.23;;;6.30;72.60;;;;;;10404428;28;20219;-82
2023/04/04 21:00:52;;;;;;;11.10;9.70;;;6.20;72.00;;;;;;10419814;28;20199;-81
2023/04/04 21:05:58;;;;;;;9.83;8.93;;;6.10;72.50;;;;;;10516198;22;20229;-83
2023/04/04 21:11:01;;;;;;;9.40;8.50;;;6.00;71.30;;;;;;10514508;28;20690;-84
2023/04/04 21:16:40;;;;;;;11.10;9.10;;;5.80;72.20;;;;;;10431628;28;20241;-84
2023/04/04 21:22:15;;;;;;;8.10;7.40;;;5.80;72.80;;;;;;10411682;28;20213;-84
2023/04/04 21:28:09;;;;;;;9.57;6.70;;;5.60;73.30;;;;;;10459634;28;20214;-85
2023/04/04 21:33:58;;;;;;;8.17;7.47;;;5.60;72.00;;;;;;10463504;28;20222;-84
2023/04/04 21:39:43;;;;;;;7.70;6.90;;;5.50;72.50;;;;;;10431105;28;20312;-84
2023/04/04 21:45:31;;;;;;;15.97;14.00;;;5.30;72.50;;;;;;10427549;28;20218;-81
2023/04/04 21:57:13;;;;;;;8.27;7.00;;;5.20;75.20;;;;;;10410906;28;20197;-84
2023/04/04 22:02:15;;;;;;;6.37;5.90;;;5.10;73.60;;;;;;10428190;28;20252;-83
2023/04/04 22:07:20;;;;;;;6.53;6.03;;;5.00;74.50;;;;;;10410031;28;20217;-84
2023/04/04 22:12:24;;;;;;;6.60;6.00;;;4.90;75.60;;;;;;10421512;28;20223;-84
2023/04/04 22:17:30;;;;;;;7.37;6.13;;;5.00;73.60;;;;;;10412573;28;20201;-82
2023/04/04 22:22:49;;;;;;;6.80;6.17;;;4.90;74.10;;;;;;10412359;28;20642;-83
2023/04/04 22:28:00;;;;;;;8.27;6.33;;;4.80;74.30;;;;;;10423650;28;20218;-84
2023/04/04 22:33:08;;;;;;;7.37;6.50;;;4.80;74.90;;;;;;10438611;28;20220;-83
2023/04/04 22:38:27;;;;;;;7.10;6.40;;;4.70;75.40;;;;;;10442981;28;20199;-84
2023/04/04 22:43:32;;;;;;;6.63;6.03;;;4.70;75.50;;;;;;10440198;28;20684;-82
2023/04/04 22:48:40;;;;;;;6.33;5.77;;;4.70;74.10;;;;;;10426109;28;20227;-84
2023/04/04 22:53:46;;;;;;;7.77;6.70;;;4.60;74.50;;;;;;10442837;28;20225;-84
2023/04/04 22:58:57;;;;;;;6.40;5.80;;;4.60;75.10;;;;;;10428551;28;20215;-84
2023/04/04 23:04:04;;;;;;;6.07;5.57;;;4.60;75.00;;;;;;10447392;28;20703;-84
2023/04/04 23:09:15;;;;;;;6.27;5.67;;;4.60;74.90;;;;;;10456918;28;20299;-84
2023/04/04 23:14:29;;;;;;;6.07;5.30;;;4.60;74.60;;;;;;10422955;28;20224;-83
2023/04/04 23:19:34;;;;;;;8.67;6.30;;;4.60;75.70;;;;;;10408727;28;20631;-83
2023/04/04 23:24:43;;;;;;;6.77;6.17;;;4.60;75.70;;;;;;10433185;28;20271;-84
2023/04/04 23:29:59;;;;;;;7.77;6.87;;;4.60;75.50;;;;;;10436501;28;20221;-83
2023/04/04 23:35:05;;;;;;;6.23;5.70;;;4.60;76.30;;;;;;10431922;28;20656;-84
2023/04/04 23:40:10;;;;;;;7.63;6.83;;;4.60;75.50;;;;;;10411078;28;20198;-84
2023/04/04 23:45:12;;;;;;;7.70;6.60;;;4.60;76.70;;;;;;10451154;28;20218;-84
2023/04/04 23:50:22;;;;;;;6.90;6.20;;;4.50;75.90;;;;;;10446554;28;20270;-84
2023/04/04 23:55:46;;;;;;;7.53;6.93;;;4.50;77.50;;;;;;10438087;28;20312;-84
